createdAt,value
2022-11-14T05:16:01.836Z,99964.38
2022-11-14T05:18:47.289Z,99969.56
2022-11-14T05:21:32.539Z,99962.66
2022-11-14T05:24:20.942Z,99965.28
2022-11-14T05:27:05.906Z,99960.94
2022-11-14T05:29:50.888Z,99967.88
2022-11-14T05:32:35.939Z,99948.81
2022-11-14T05:35:20.902Z,99947.91
2022-11-14T05:38:05.833Z,99948.78
2022-11-14T05:40:50.848Z,99950.50
2022-11-14T05:43:36.663Z,99947.91
2022-11-14T05:46:21.533Z,99950.50
2022-11-14T05:49:06.564Z,99951.34
2022-11-14T05:51:51.519Z,99947.88
2022-11-14T05:54:36.608Z,99947.88
2022-11-14T05:58:13.191Z,99949.56
2022-11-14T06:01:25.466Z,99958.22
2022-11-14T06:04:22.359Z,99953.91
2022-11-14T06:07:07.899Z,99958.19
2022-11-14T06:09:53.149Z,99957.31
2022-11-14T06:12:38.006Z,99956.44
2022-11-14T06:15:23.089Z,99960.75
2022-11-14T06:18:07.981Z,99971.13
2022-11-14T06:20:52.892Z,99965.03
2022-11-14T06:23:38.684Z,99967.63
2022-11-14T06:26:26.058Z,99971.97
2022-11-14T06:29:11.446Z,99980.66
2022-11-14T06:31:56.575Z,99970.22
2022-11-14T06:34:41.717Z,99961.53
2022-11-14T06:37:29.407Z,99966.69
2022-11-14T06:40:17.828Z,99964.97
2022-11-14T06:43:02.931Z,99952.81
2022-11-14T06:45:47.958Z,99942.38
2022-11-14T06:48:33.374Z,99941.44
2022-11-14T06:51:19.002Z,99951.88
2022-11-14T06:54:05.368Z,99937.94
2022-11-14T06:56:50.665Z,99933.56
2022-11-14T06:59:35.784Z,99933.56
2022-11-14T07:02:22.150Z,99953.53
2022-11-14T07:05:08.913Z,99948.31
2022-11-14T07:07:58.891Z,99956.06
2022-11-14T07:10:46.096Z,99955.16
2022-11-14T07:13:34.512Z,99940.44
2022-11-14T07:16:20.616Z,99943.88
2022-11-14T07:19:09.685Z,99930.81
2022-11-14T07:21:54.475Z,99942.03
2022-11-14T07:24:39.495Z,99945.47
2022-11-14T07:27:28.608Z,99950.69
2022-11-14T07:30:13.763Z,99942.84
2022-11-14T07:32:59.639Z,99950.66
2022-11-14T07:35:44.545Z,99951.50
2022-11-14T07:38:34.603Z,99969.69
2022-11-14T07:41:23.166Z,99976.63
2022-11-14T07:44:08.567Z,99978.34
2022-11-14T07:46:53.903Z,99980.03
2022-11-14T07:49:39.029Z,99977.38
2022-11-14T07:52:24.182Z,99969.56
2022-11-14T07:55:09.590Z,99960.84
2022-11-14T07:57:59.026Z,99949.53
2022-11-14T08:00:48.219Z,99955.63
2022-11-14T08:03:34.370Z,99965.16
2022-11-14T08:06:19.630Z,99969.47
2022-11-14T08:10:02.815Z,99964.19
2022-11-14T08:12:52.814Z,99961.69
2022-11-14T08:15:49.683Z,99964.16
2022-11-14T08:18:34.615Z,99974.50
2022-11-14T08:21:19.338Z,99979.78
2022-11-14T08:24:04.605Z,99979.84
2022-11-14T08:26:49.759Z,99978.94
2022-11-14T08:29:34.629Z,99977.38
2022-11-14T08:32:19.795Z,99986.75
2022-11-14T08:36:03.110Z,99982.38
2022-11-14T08:43:40.099Z,99977.91
2022-11-14T08:46:25.073Z,99977.00
2022-11-14T08:49:10.086Z,99983.88
2022-11-14T08:51:55.112Z,99972.59
2022-11-14T08:54:40.332Z,99969.97
2022-11-14T08:57:25.251Z,99964.66
2022-11-14T09:00:36.177Z,99968.84
2022-11-14T09:03:21.774Z,99971.50
2022-11-14T09:06:06.913Z,99993.41
2022-11-14T09:08:57.714Z,99996.81
2022-11-14T09:11:42.930Z,99997.78
2022-11-14T09:14:34.275Z,100001.09
2022-11-14T09:17:19.647Z,100001.22
2022-11-14T09:20:05.043Z,100013.44
2022-11-14T09:22:53.260Z,99998.72
2022-11-14T09:25:40.578Z,100001.44
2022-11-14T09:28:26.059Z,100004.72
2022-11-14T09:31:13.317Z,99993.38
2022-11-14T09:33:58.552Z,99992.25
2022-11-14T09:36:43.784Z,99989.50
2022-11-14T09:39:30.977Z,99988.63
2022-11-14T09:42:41.243Z,99983.19
2022-11-14T09:45:57.724Z,99976.78
2022-11-14T09:48:44.366Z,99967.81
2022-11-14T09:51:44.657Z,99961.34
2022-11-14T09:54:55.785Z,99970.53
2022-11-14T09:57:46.144Z,99945.91
2022-11-14T10:01:34.094Z,99948.34
2022-11-14T10:04:44.003Z,99932.91
2022-11-14T10:07:51.685Z,99942.41
2022-11-14T10:11:01.784Z,99937.16
2022-11-14T10:14:36.644Z,99943.09
2022-11-14T10:17:27.296Z,99955.06
2022-11-14T10:20:26.851Z,99955.75
2022-11-14T10:23:52.031Z,99944.81
2022-11-14T10:27:03.420Z,99946.53
2022-11-14T10:29:57.520Z,99951.72
2022-11-14T10:33:08.566Z,99943.69
2022-11-14T10:36:07.586Z,99947.28
2022-11-14T10:39:15.891Z,99936.50
2022-11-14T10:42:29.776Z,99924.50
2022-11-14T10:45:29.365Z,99918.16
2022-11-14T10:48:35.285Z,99921.50
2022-11-14T10:51:39.382Z,99907.09
2022-11-14T10:54:40.928Z,99908.78
2022-11-14T10:57:31.517Z,99909.72
2022-11-14T11:00:19.398Z,99905.25
2022-11-14T11:03:04.570Z,99894.63
2022-11-14T11:05:57.612Z,99895.69
2022-11-14T11:09:31.938Z,99888.53
2022-11-14T11:12:21.638Z,99884.91
2022-11-14T11:15:15.482Z,99878.69
2022-11-14T11:18:34.687Z,99877.50
2022-11-14T11:21:22.391Z,99871.97
2022-11-14T11:24:08.737Z,99870.88
2022-11-14T11:27:22.769Z,99866.72
2022-11-14T11:30:18.231Z,99855.72
2022-11-14T11:33:16.953Z,99853.59
2022-11-14T11:36:19.857Z,99852.13
2022-11-14T11:39:04.910Z,99857.38
2022-11-14T11:42:10.185Z,99859.75
2022-11-14T11:45:51.338Z,99849.50
2022-11-14T11:49:10.513Z,99837.47
2022-11-14T11:52:01.923Z,99830.06
2022-11-14T11:55:04.869Z,99826.53
2022-11-14T11:58:17.850Z,99822.47
2022-11-14T12:01:13.517Z,99821.72
2022-11-14T12:04:01.422Z,99835.28
2022-11-14T12:06:58.746Z,99829.75
2022-11-14T12:10:09.190Z,99836.88
2022-11-14T12:13:28.953Z,99841.63
2022-11-14T12:16:46.522Z,99844.47
2022-11-14T12:20:15.178Z,99829.34
2022-11-14T12:24:03.236Z,99836.22
2022-11-14T12:31:13.944Z,99833.13
2022-11-14T12:34:02.897Z,99829.56
2022-11-14T12:36:49.485Z,99826.41
2022-11-14T12:39:35.806Z,99826.91
2022-11-14T12:42:32.244Z,99819.38
2022-11-14T12:45:40.731Z,99819.47
2022-11-14T12:48:26.757Z,99813.69
2022-11-14T12:51:25.867Z,99812.84
2022-11-14T12:54:47.728Z,99806.78
2022-11-14T12:57:49.691Z,99802.63
2022-11-14T13:01:04.473Z,99802.63
2022-11-14T13:04:13.680Z,99812.81
2022-11-14T13:07:14.227Z,99797.06
2022-11-14T13:10:09.560Z,99793.09
2022-11-14T13:13:30.315Z,99793.53
2022-11-14T13:16:48.541Z,99785.00
2022-11-14T13:19:52.296Z,99773.88
2022-11-14T13:22:41.811Z,99772.56
2022-11-14T13:25:27.607Z,99774.13
2022-11-14T13:28:39.143Z,99766.25
2022-11-14T13:31:36.592Z,99762.44
2022-11-14T13:34:46.186Z,99764.94
2022-11-14T13:38:01.546Z,99759.47
2022-11-14T13:41:28.070Z,99754.13
2022-11-14T13:44:47.772Z,99746.63
2022-11-14T13:47:59.095Z,99746.34
2022-11-14T13:50:50.176Z,99744.88
2022-11-14T13:53:41.036Z,99740.34
2022-11-14T14:00:56.808Z,99733.03
2022-11-14T14:03:53.791Z,99739.16
2022-11-14T14:06:59.752Z,99742.81
2022-11-14T14:10:15.585Z,99738.47
2022-11-14T14:13:24.585Z,99742.56
2022-11-14T14:16:35.310Z,99737.38
2022-11-14T14:19:56.698Z,99743.41
2022-11-14T14:22:45.379Z,99744.59
2022-11-14T14:26:14.599Z,99738.31
2022-11-14T14:29:30.699Z,99743.91
2022-11-14T14:32:18.172Z,99735.69
2022-11-14T14:35:21.827Z,99732.81
2022-11-14T14:38:21.717Z,99733.56
2022-11-14T14:41:07.182Z,99723.94
2022-11-14T14:43:56.089Z,99727.53
2022-11-14T14:46:41.403Z,99728.31
2022-11-14T14:49:38.050Z,99727.50
2022-11-14T14:52:33.008Z,99732.28
2022-11-14T14:55:41.748Z,99730.31
2022-11-14T14:58:30.075Z,99728.59
2022-11-14T15:01:43.224Z,99716.34
2022-11-14T15:04:29.967Z,99710.38
2022-11-14T15:07:26.832Z,99703.66
2022-11-14T15:10:21.251Z,99693.88
2022-11-14T15:13:14.120Z,99710.34
2022-11-14T15:15:59.935Z,99707.28
2022-11-14T15:18:53.300Z,99707.88
2022-11-14T15:22:29.218Z,99706.16
2022-11-14T15:25:14.164Z,99715.63
2022-11-14T15:28:30.480Z,99707.69
2022-11-14T15:31:21.681Z,99695.47
2022-11-14T15:34:25.739Z,99696.38
2022-11-14T15:38:36.667Z,99709.53
2022-11-14T15:41:19.981Z,99715.75
2022-11-14T15:44:05.601Z,99700.84
2022-11-14T15:46:50.923Z,99715.72
2022-11-14T15:49:39.610Z,99715.59
2022-11-14T15:53:17.681Z,99704.72
2022-11-14T15:56:03.950Z,99709.03
2022-11-14T15:58:53.724Z,99713.59
2022-11-14T16:01:38.851Z,99712.16
2022-11-14T16:04:29.464Z,99714.63
2022-11-14T16:07:16.704Z,99710.03
2022-11-14T16:10:01.956Z,99708.88
2022-11-14T16:12:52.262Z,99710.88
2022-11-14T16:15:37.981Z,99717.88
2022-11-14T16:18:23.136Z,99710.22
2022-11-14T16:21:18.274Z,99718.91
2022-11-14T16:24:03.658Z,99724.31
2022-11-14T16:26:52.034Z,99721.84
2022-11-14T16:29:37.095Z,99716.44
2022-11-14T16:32:23.356Z,99715.19
2022-11-14T16:35:20.660Z,99722.28
2022-11-14T16:38:05.548Z,99729.44
2022-11-14T16:40:50.486Z,99728.22
2022-11-14T16:43:35.523Z,99722.41
2022-11-14T16:46:20.918Z,99730.19
2022-11-14T16:49:05.992Z,99728.78
2022-11-14T16:51:51.956Z,99730.94
2022-11-14T16:54:37.148Z,99731.88
2022-11-14T16:57:23.035Z,99735.47
2022-11-14T17:00:13.713Z,99732.47
2022-11-14T17:02:58.933Z,99728.31
2022-11-14T17:05:45.806Z,99732.84
2022-11-14T17:08:30.736Z,99738.91
2022-11-14T17:11:15.719Z,99747.63
2022-11-14T17:14:00.863Z,99751.94
2022-11-14T17:16:46.723Z,99749.34
2022-11-14T17:19:31.764Z,99747.31
2022-11-14T17:22:18.345Z,99748.44
2022-11-14T17:25:03.404Z,99749.88
2022-11-14T17:27:49.037Z,99738.88
2022-11-14T17:30:34.059Z,99737.81
2022-11-14T17:33:19.159Z,99745.56
2022-11-14T17:36:07.000Z,99748.19
2022-11-14T17:38:52.492Z,99744.38
2022-11-14T17:41:38.591Z,99746.31
2022-11-14T17:44:24.438Z,99754.09
2022-11-14T17:47:34.946Z,99756.34
2022-11-14T17:50:20.117Z,99746.75
2022-11-14T17:53:05.531Z,99761.31
2022-11-14T17:55:59.137Z,99762.50
2022-11-14T17:58:45.066Z,99758.22
2022-11-14T18:01:31.697Z,99756.53
2022-11-14T18:04:17.102Z,99755.22
2022-11-14T18:07:02.478Z,99757.72
2022-11-14T18:10:17.254Z,99760.81
2022-11-14T18:13:05.091Z,99761.66
2022-11-14T18:15:50.705Z,99759.06
2022-11-14T18:18:37.244Z,99758.00
2022-11-14T18:21:25.290Z,99763.47
2022-11-14T18:24:12.965Z,99761.47
2022-11-14T18:27:02.129Z,99766.38
2022-11-14T18:29:47.307Z,99761.66
2022-11-14T18:32:32.957Z,99767.78
2022-11-14T18:35:17.933Z,99766.88
2022-11-14T18:38:03.228Z,99771.22
2022-11-14T18:40:51.693Z,99777.31
2022-11-14T18:43:40.116Z,99774.06
2022-11-14T18:46:25.777Z,99776.16
2022-11-14T18:49:11.116Z,99773.47
2022-11-14T18:51:57.549Z,99776.50
2022-11-14T18:54:42.910Z,99775.66
2022-11-14T18:57:31.325Z,99776.63
2022-11-14T19:00:17.522Z,99774.88
2022-11-14T19:03:06.224Z,99773.09
2022-11-14T19:05:55.740Z,99776.50
2022-11-14T19:08:41.786Z,99790.22
2022-11-14T19:11:46.773Z,99778.34
2022-11-14T19:18:23.212Z,99781.16
2022-11-14T19:21:09.737Z,99777.50
2022-11-14T19:23:56.015Z,99777.81
2022-11-14T19:26:41.763Z,99783.63
2022-11-14T19:29:27.722Z,99780.31
2022-11-14T19:32:14.083Z,99783.25
2022-11-14T19:35:00.310Z,99780.13
2022-11-14T19:37:46.094Z,99786.72
2022-11-14T19:40:31.684Z,99781.38
2022-11-14T19:43:20.260Z,99781.47
2022-11-14T19:46:07.569Z,99785.06
2022-11-14T19:49:01.298Z,99784.69
2022-11-14T19:51:47.925Z,99786.22
2022-11-14T19:54:34.160Z,99786.41
2022-11-14T19:57:20.369Z,99794.13
2022-11-14T20:00:06.628Z,99782.81
2022-11-14T20:02:58.711Z,99788.25
2022-11-14T20:05:44.119Z,99789.88
2022-11-14T20:08:35.524Z,99797.13
2022-11-14T20:11:27.742Z,99783.00
2022-11-14T20:14:14.838Z,99789.28
2022-11-14T20:17:01.590Z,99782.97
2022-11-14T20:19:47.688Z,99783.72
2022-11-14T20:22:33.475Z,99784.72
2022-11-14T20:25:22.205Z,99786.75
2022-11-14T20:28:14.192Z,99793.03
2022-11-14T20:31:08.172Z,99788.19
2022-11-14T20:33:54.752Z,99792.50
2022-11-14T20:37:10.026Z,99793.16
2022-11-14T20:39:52.431Z,99795.84
2022-11-14T20:42:38.327Z,99792.41
2022-11-14T20:45:25.749Z,99797.81
2022-11-14T20:48:12.793Z,99792.03
2022-11-14T20:51:06.993Z,99787.72
2022-11-14T20:54:44.454Z,99785.91
2022-11-14T20:59:03.087Z,99784.22
2022-11-14T21:27:27.955Z,99784.16
2022-11-14T21:30:54.036Z,99780.56
2022-11-14T21:34:03.704Z,99788.50
2022-11-14T21:38:18.606Z,99793.63
2022-11-14T21:41:12.387Z,99792.56
2022-11-14T21:44:10.998Z,99783.81
2022-11-14T21:47:59.133Z,99787.00
2022-11-14T21:51:12.769Z,99789.81
2022-11-14T21:54:23.099Z,99787.06
2022-11-14T21:57:12.698Z,99787.53
2022-11-14T21:59:57.873Z,99791.56
2022-11-14T22:03:01.900Z,99788.66
2022-11-14T22:05:47.082Z,99790.44
2022-11-14T22:08:32.331Z,99788.84
2022-11-14T22:11:17.502Z,99791.88
2022-11-14T22:14:02.740Z,99795.50
2022-11-14T22:16:50.820Z,99787.31
2022-11-14T22:19:36.080Z,99784.78
2022-11-14T22:22:21.406Z,99783.53
2022-11-14T22:25:06.740Z,99782.47
2022-11-14T22:27:55.262Z,99784.09
2022-11-14T22:30:40.577Z,99781.88
2022-11-14T22:33:34.858Z,99785.13
2022-11-14T22:36:22.148Z,99781.25
2022-11-14T22:39:07.328Z,99766.19
2022-11-14T22:41:52.386Z,99775.47
2022-11-14T22:44:37.545Z,99775.41
2022-11-14T22:47:22.533Z,99778.06
2022-11-14T22:50:08.150Z,99777.22
2022-11-14T22:52:54.596Z,99794.25
2022-11-14T22:55:47.917Z,99798.75
2022-11-14T22:58:35.818Z,99783.63
